Villaquilambre, Spain
Current Conditions -  °F | °C
As of 9:00 PM on Monday 22 Dec 2014 (Local Time) from LELN Reporting Station
Clear Clear  
Wind Chill: 28°   Ceiling: Unl
Heat Index: 28°   Visibility: 6mi
Dew Point: 28°   Wind: 2mph
Humidity: 100%   Direction: NA
Pressure: 30.39"   Gusts: NA
Location:  42.65°N, 5.56°W
Report Text: LELN 222000Z VRB02KT CAVOK M02/M02 Q1029
Loading
Personal Weather Stations






























Interactive Weather Map New forecast layout! Learn more

10-Day Weather Forecast

Advertisements
Track Severe Weather on mobile